sensor_id;sensor_type;location;lat;lon;timestamp;temperature;humidity
2577;DHT22;1298;51.252;6.802;2022-12-07T00:02:28;5.00;99.90
2577;DHT22;1298;51.252;6.802;2022-12-07T00:05:13;5.10;99.90
2577;DHT22;1298;51.252;6.802;2022-12-07T00:07:58;5.10;99.90
2577;DHT22;1298;51.252;6.802;2022-12-07T00:10:43;5.10;99.90
2577;DHT22;1298;51.252;6.802;2022-12-07T00:13:30;5.10;99.90
2577;DHT22;1298;51.252;6.802;2022-12-07T00:16:16;5.10;99.90
2577;DHT22;1298;51.252;6.802;2022-12-07T00:19:02;5.10;99.90
2577;DHT22;1298;51.252;6.802;2022-12-07T00:21:48;5.10;99.90
2577;DHT22;1298;51.252;6.802;2022-12-07T00:24:33;5.10;99.90
2577;DHT22;1298;51.252;6.802;2022-12-07T00:27:18;5.10;99.90
2577;DHT22;1298;51.252;6.802;2022-12-07T00:30:05;5.10;99.90
2577;DHT22;1298;51.252;6.802;2022-12-07T00:32:51;5.10;99.90
2577;DHT22;1298;51.252;6.802;2022-12-07T00:35:36;5.10;99.90
2577;DHT22;1298;51.252;6.802;2022-12-07T00:38:22;5.10;99.90
2577;DHT22;1298;51.252;6.802;2022-12-07T00:41:09;5.10;99.90
2577;DHT22;1298;51.252;6.802;2022-12-07T00:43:55;5.10;99.90
2577;DHT22;1298;51.252;6.802;2022-12-07T00:46:43;5.10;99.90
2577;DHT22;1298;51.252;6.802;2022-12-07T00:49:29;5.10;99.90
2577;DHT22;1298;51.252;6.802;2022-12-07T00:52:15;5.10;99.90
2577;DHT22;1298;51.252;6.802;2022-12-07T00:55:01;5.10;99.90
2577;DHT22;1298;51.252;6.802;2022-12-07T00:57:47;5.10;99.90
2577;DHT22;1298;51.252;6.802;2022-12-07T01:00:32;5.10;99.90
2577;DHT22;1298;51.252;6.802;2022-12-07T01:03:19;5.10;99.90
2577;DHT22;1298;51.252;6.802;2022-12-07T01:06:05;5.10;99.90
2577;DHT22;1298;51.252;6.802;2022-12-07T01:08:50;5.10;99.90
2577;DHT22;1298;51.252;6.802;2022-12-07T01:11:36;5.10;99.90
2577;DHT22;1298;51.252;6.802;2022-12-07T01:14:21;5.10;99.90
2577;DHT22;1298;51.252;6.802;2022-12-07T01:17:06;5.10;99.90
2577;DHT22;1298;51.252;6.802;2022-12-07T01:19:53;5.10;99.90
2577;DHT22;1298;51.252;6.802;2022-12-07T01:22:39;5.10;99.90
2577;DHT22;1298;51.252;6.802;2022-12-07T01:25:25;5.10;99.90
2577;DHT22;1298;51.252;6.802;2022-12-07T01:28:10;5.10;99.90
2577;DHT22;1298;51.252;6.802;2022-12-07T01:30:57;5.10;99.90
2577;DHT22;1298;51.252;6.802;2022-12-07T01:33:43;5.00;99.90
2577;DHT22;1298;51.252;6.802;2022-12-07T01:36:31;5.00;99.90
2577;DHT22;1298;51.252;6.802;2022-12-07T01:39:18;5.10;99.90
2577;DHT22;1298;51.252;6.802;2022-12-07T01:42:04;5.10;99.90
2577;DHT22;1298;51.252;6.802;2022-12-07T01:47:55;5.10;99.90
2577;DHT22;1298;51.252;6.802;2022-12-07T01:50:41;5.10;99.90
2577;DHT22;1298;51.252;6.802;2022-12-07T01:53:28;5.10;99.90
2577;DHT22;1298;51.252;6.802;2022-12-07T01:56:15;5.10;99.90
2577;DHT22;1298;51.252;6.802;2022-12-07T01:59:02;5.00;99.90
2577;DHT22;1298;51.252;6.802;2022-12-07T02:01:47;5.00;99.90
2577;DHT22;1298;51.252;6.802;2022-12-07T02:04:32;5.00;99.90
2577;DHT22;1298;51.252;6.802;2022-12-07T02:07:17;5.00;99.90
2577;DHT22;1298;51.252;6.802;2022-12-07T02:10:13;5.00;99.90
2577;DHT22;1298;51.252;6.802;2022-12-07T02:12:58;4.90;99.90
2577;DHT22;1298;51.252;6.802;2022-12-07T02:15:47;4.90;99.90
2577;DHT22;1298;51.252;6.802;2022-12-07T02:18:44;4.90;99.90
2577;DHT22;1298;51.252;6.802;2022-12-07T02:21:36;4.90;99.90
2577;DHT22;1298;51.252;6.802;2022-12-07T02:24:37;4.90;99.90
2577;DHT22;1298;51.252;6.802;2022-12-07T02:27:31;4.90;99.90
2577;DHT22;1298;51.252;6.802;2022-12-07T02:30:20;4.90;99.90
2577;DHT22;1298;51.252;6.802;2022-12-07T02:33:07;4.90;99.90
2577;DHT22;1298;51.252;6.802;2022-12-07T02:35:57;4.90;99.90
2577;DHT22;1298;51.252;6.802;2022-12-07T02:38:45;4.90;99.90
2577;DHT22;1298;51.252;6.802;2022-12-07T02:41:33;4.80;99.90
2577;DHT22;1298;51.252;6.802;2022-12-07T02:44:20;4.80;99.90
2577;DHT22;1298;51.252;6.802;2022-12-07T02:47:08;4.80;99.90
2577;DHT22;1298;51.252;6.802;2022-12-07T02:49:54;4.80;99.90
2577;DHT22;1298;51.252;6.802;2022-12-07T02:52:40;4.80;99.90
2577;DHT22;1298;51.252;6.802;2022-12-07T02:55:26;4.80;99.90
2577;DHT22;1298;51.252;6.802;2022-12-07T02:58:18;4.80;99.90
2577;DHT22;1298;51.252;6.802;2022-12-07T03:01:08;4.70;99.90
2577;DHT22;1298;51.252;6.802;2022-12-07T03:03:58;4.80;99.90
2577;DHT22;1298;51.252;6.802;2022-12-07T03:06:46;4.70;99.90
2577;DHT22;1298;51.252;6.802;2022-12-07T03:09:36;4.70;99.90
2577;DHT22;1298;51.252;6.802;2022-12-07T03:12:24;4.70;99.90
2577;DHT22;1298;51.252;6.802;2022-12-07T03:15:14;4.70;99.90
2577;DHT22;1298;51.252;6.802;2022-12-07T03:18:00;4.70;99.90
2577;DHT22;1298;51.252;6.802;2022-12-07T03:20:49;4.70;99.90
2577;DHT22;1298;51.252;6.802;2022-12-07T03:23:37;4.70;99.90
2577;DHT22;1298;51.252;6.802;2022-12-07T03:26:24;4.60;99.90
2577;DHT22;1298;51.252;6.802;2022-12-07T03:29:14;4.70;99.90
2577;DHT22;1298;51.252;6.802;2022-12-07T03:32:03;4.60;99.90
2577;DHT22;1298;51.252;6.802;2022-12-07T03:34:51;4.60;99.90
2577;DHT22;1298;51.252;6.802;2022-12-07T03:37:39;4.50;99.90
2577;DHT22;1298;51.252;6.802;2022-12-07T03:40:30;4.50;99.90
2577;DHT22;1298;51.252;6.802;2022-12-07T03:43:18;4.60;99.90
2577;DHT22;1298;51.252;6.802;2022-12-07T03:46:06;4.60;99.90
2577;DHT22;1298;51.252;6.802;2022-12-07T03:48:54;4.70;99.90
2577;DHT22;1298;51.252;6.802;2022-12-07T03:51:43;4.60;99.90
2577;DHT22;1298;51.252;6.802;2022-12-07T03:54:32;4.60;99.90
2577;DHT22;1298;51.252;6.802;2022-12-07T03:57:19;4.50;99.90
2577;DHT22;1298;51.252;6.802;2022-12-07T04:00:06;4.50;99.90
2577;DHT22;1298;51.252;6.802;2022-12-07T04:02:52;4.50;99.90
2577;DHT22;1298;51.252;6.802;2022-12-07T04:05:38;4.50;99.90
2577;DHT22;1298;51.252;6.802;2022-12-07T04:08:23;4.50;99.90
2577;DHT22;1298;51.252;6.802;2022-12-07T04:11:10;4.50;99.90
2577;DHT22;1298;51.252;6.802;2022-12-07T04:13:55;4.50;99.90
2577;DHT22;1298;51.252;6.802;2022-12-07T04:16:58;4.60;99.90
2577;DHT22;1298;51.252;6.802;2022-12-07T04:19:44;4.50;99.90
2577;DHT22;1298;51.252;6.802;2022-12-07T04:22:29;4.50;99.90
2577;DHT22;1298;51.252;6.802;2022-12-07T04:25:14;4.40;99.90
2577;DHT22;1298;51.252;6.802;2022-12-07T04:28:01;4.50;99.90
2577;DHT22;1298;51.252;6.802;2022-12-07T04:30:46;4.40;99.90
2577;DHT22;1298;51.252;6.802;2022-12-07T04:33:32;4.40;99.90
2577;DHT22;1298;51.252;6.802;2022-12-07T04:36:18;4.40;99.90
2577;DHT22;1298;51.252;6.802;2022-12-07T04:39:04;4.40;99.90
2577;DHT22;1298;51.252;6.802;2022-12-07T04:41:50;4.40;99.90
2577;DHT22;1298;51.252;6.802;2022-12-07T04:44:37;4.40;99.90
2577;DHT22;1298;51.252;6.802;2022-12-07T04:47:22;4.40;99.90
2577;DHT22;1298;51.252;6.802;2022-12-07T04:50:08;4.40;99.90
2577;DHT22;1298;51.252;6.802;2022-12-07T04:52:54;4.40;99.90
2577;DHT22;1298;51.252;6.802;2022-12-07T04:55:39;4.40;99.90
2577;DHT22;1298;51.252;6.802;2022-12-07T04:58:25;4.40;99.90
2577;DHT22;1298;51.252;6.802;2022-12-07T05:01:11;4.40;99.90
2577;DHT22;1298;51.252;6.802;2022-12-07T05:03:57;4.40;99.90
2577;DHT22;1298;51.252;6.802;2022-12-07T05:06:43;4.40;99.90
2577;DHT22;1298;51.252;6.802;2022-12-07T05:09:28;4.30;99.90
2577;DHT22;1298;51.252;6.802;2022-12-07T05:12:14;4.40;99.90
2577;DHT22;1298;51.252;6.802;2022-12-07T05:15:00;4.40;99.90
2577;DHT22;1298;51.252;6.802;2022-12-07T05:17:47;4.40;99.90
2577;DHT22;1298;51.252;6.802;2022-12-07T05:20:32;4.40;99.90
2577;DHT22;1298;51.252;6.802;2022-12-07T05:23:19;4.40;99.90
2577;DHT22;1298;51.252;6.802;2022-12-07T05:26:05;4.40;99.90
2577;DHT22;1298;51.252;6.802;2022-12-07T05:28:50;4.40;99.90
2577;DHT22;1298;51.252;6.802;2022-12-07T05:31:36;4.40;99.90
2577;DHT22;1298;51.252;6.802;2022-12-07T05:34:22;4.40;99.90
2577;DHT22;1298;51.252;6.802;2022-12-07T05:37:07;4.30;99.90
2577;DHT22;1298;51.252;6.802;2022-12-07T05:39:53;4.30;99.90
2577;DHT22;1298;51.252;6.802;2022-12-07T05:42:38;4.40;99.90
2577;DHT22;1298;51.252;6.802;2022-12-07T05:45:23;4.40;99.90
2577;DHT22;1298;51.252;6.802;2022-12-07T05:48:08;4.40;99.90
2577;DHT22;1298;51.252;6.802;2022-12-07T05:50:55;4.40;99.90
2577;DHT22;1298;51.252;6.802;2022-12-07T05:53:40;4.40;99.90
2577;DHT22;1298;51.252;6.802;2022-12-07T05:56:25;4.40;99.90
2577;DHT22;1298;51.252;6.802;2022-12-07T05:59:11;4.40;99.90
2577;DHT22;1298;51.252;6.802;2022-12-07T06:02:09;4.40;99.90
2577;DHT22;1298;51.252;6.802;2022-12-07T06:04:54;4.40;99.90
2577;DHT22;1298;51.252;6.802;2022-12-07T06:07:41;4.40;99.90
2577;DHT22;1298;51.252;6.802;2022-12-07T06:10:26;4.30;99.90
2577;DHT22;1298;51.252;6.802;2022-12-07T06:13:11;4.30;99.90
2577;DHT22;1298;51.252;6.802;2022-12-07T06:15:58;4.30;99.90
2577;DHT22;1298;51.252;6.802;2022-12-07T06:18:43;4.40;99.90
2577;DHT22;1298;51.252;6.802;2022-12-07T06:21:28;4.40;99.90
2577;DHT22;1298;51.252;6.802;2022-12-07T06:24:14;4.40;99.90
2577;DHT22;1298;51.252;6.802;2022-12-07T06:27:00;4.40;99.90
2577;DHT22;1298;51.252;6.802;2022-12-07T06:29:45;4.50;99.90
2577;DHT22;1298;51.252;6.802;2022-12-07T06:32:31;4.50;99.90
2577;DHT22;1298;51.252;6.802;2022-12-07T06:35:16;4.50;99.90
2577;DHT22;1298;51.252;6.802;2022-12-07T06:38:01;4.50;99.90
2577;DHT22;1298;51.252;6.802;2022-12-07T06:40:48;4.50;99.90
2577;DHT22;1298;51.252;6.802;2022-12-07T06:43:33;4.40;99.90
2577;DHT22;1298;51.252;6.802;2022-12-07T06:46:18;4.40;99.90
2577;DHT22;1298;51.252;6.802;2022-12-07T06:49:04;4.50;99.90
2577;DHT22;1298;51.252;6.802;2022-12-07T06:51:49;4.40;99.90
2577;DHT22;1298;51.252;6.802;2022-12-07T06:54:34;4.50;99.90
2577;DHT22;1298;51.252;6.802;2022-12-07T06:57:21;4.50;99.90
2577;DHT22;1298;51.252;6.802;2022-12-07T07:00:07;4.50;99.90
2577;DHT22;1298;51.252;6.802;2022-12-07T07:02:52;4.50;99.90
2577;DHT22;1298;51.252;6.802;2022-12-07T07:05:37;4.50;99.90
2577;DHT22;1298;51.252;6.802;2022-12-07T07:08:22;4.50;99.90
2577;DHT22;1298;51.252;6.802;2022-12-07T07:11:08;4.50;99.90
2577;DHT22;1298;51.252;6.802;2022-12-07T07:13:54;4.50;99.90
2577;DHT22;1298;51.252;6.802;2022-12-07T07:16:46;4.50;99.90
2577;DHT22;1298;51.252;6.802;2022-12-07T07:19:31;4.40;99.90
2577;DHT22;1298;51.252;6.802;2022-12-07T07:22:16;4.40;99.90
2577;DHT22;1298;51.252;6.802;2022-12-07T07:25:01;4.40;99.90
2577;DHT22;1298;51.252;6.802;2022-12-07T07:27:46;4.40;99.90
2577;DHT22;1298;51.252;6.802;2022-12-07T07:30:32;4.40;99.90
2577;DHT22;1298;51.252;6.802;2022-12-07T07:33:18;4.50;99.90
2577;DHT22;1298;51.252;6.802;2022-12-07T07:36:03;4.40;99.90
2577;DHT22;1298;51.252;6.802;2022-12-07T07:38:49;4.40;99.90
2577;DHT22;1298;51.252;6.802;2022-12-07T07:41:34;4.40;99.90
2577;DHT22;1298;51.252;6.802;2022-12-07T07:44:19;4.50;99.90
2577;DHT22;1298;51.252;6.802;2022-12-07T07:47:05;4.50;99.90
2577;DHT22;1298;51.252;6.802;2022-12-07T07:49:50;4.40;99.90
2577;DHT22;1298;51.252;6.802;2022-12-07T07:52:35;4.40;99.90
2577;DHT22;1298;51.252;6.802;2022-12-07T07:55:20;4.40;99.90
2577;DHT22;1298;51.252;6.802;2022-12-07T07:58:05;4.40;99.90
2577;DHT22;1298;51.252;6.802;2022-12-07T08:00:51;4.30;99.90
2577;DHT22;1298;51.252;6.802;2022-12-07T08:03:38;4.30;99.90
2577;DHT22;1298;51.252;6.802;2022-12-07T08:06:24;4.30;99.90
2577;DHT22;1298;51.252;6.802;2022-12-07T08:09:09;4.30;99.90
2577;DHT22;1298;51.252;6.802;2022-12-07T08:11:54;4.30;99.90
2577;DHT22;1298;51.252;6.802;2022-12-07T08:14:40;4.20;99.90
2577;DHT22;1298;51.252;6.802;2022-12-07T08:17:25;4.30;99.90
2577;DHT22;1298;51.252;6.802;2022-12-07T08:20:12;4.30;99.90
2577;DHT22;1298;51.252;6.802;2022-12-07T08:22:57;4.30;99.90
2577;DHT22;1298;51.252;6.802;2022-12-07T08:25:42;4.30;99.90
2577;DHT22;1298;51.252;6.802;2022-12-07T08:28:27;4.30;99.90
2577;DHT22;1298;51.252;6.802;2022-12-07T08:31:13;4.30;99.90
2577;DHT22;1298;51.252;6.802;2022-12-07T08:33:59;4.30;99.90
2577;DHT22;1298;51.252;6.802;2022-12-07T08:36:46;4.30;99.90
2577;DHT22;1298;51.252;6.802;2022-12-07T08:39:31;4.30;99.90
2577;DHT22;1298;51.252;6.802;2022-12-07T08:42:16;4.30;99.90
2577;DHT22;1298;51.252;6.802;2022-12-07T08:45:01;4.50;99.90
2577;DHT22;1298;51.252;6.802;2022-12-07T08:47:48;4.40;99.90
2577;DHT22;1298;51.252;6.802;2022-12-07T08:50:36;4.50;99.90
2577;DHT22;1298;51.252;6.802;2022-12-07T08:53:23;4.40;99.90
2577;DHT22;1298;51.252;6.802;2022-12-07T08:56:09;4.50;99.90
2577;DHT22;1298;51.252;6.802;2022-12-07T08:58:54;4.50;99.90
2577;DHT22;1298;51.252;6.802;2022-12-07T09:01:39;4.40;99.90
2577;DHT22;1298;51.252;6.802;2022-12-07T09:04:24;4.40;99.90
2577;DHT22;1298;51.252;6.802;2022-12-07T09:07:10;4.30;99.90
2577;DHT22;1298;51.252;6.802;2022-12-07T09:09:56;4.30;99.90
2577;DHT22;1298;51.252;6.802;2022-12-07T09:12:41;4.30;99.90
2577;DHT22;1298;51.252;6.802;2022-12-07T09:15:27;4.50;99.90
2577;DHT22;1298;51.252;6.802;2022-12-07T09:18:12;4.50;99.90
2577;DHT22;1298;51.252;6.802;2022-12-07T09:20:57;4.60;99.90
2577;DHT22;1298;51.252;6.802;2022-12-07T09:23:42;4.70;99.90
2577;DHT22;1298;51.252;6.802;2022-12-07T09:26:29;4.80;99.90
2577;DHT22;1298;51.252;6.802;2022-12-07T09:29:14;4.80;99.90
2577;DHT22;1298;51.252;6.802;2022-12-07T09:31:59;4.90;99.90
2577;DHT22;1298;51.252;6.802;2022-12-07T09:34:44;4.90;99.90
2577;DHT22;1298;51.252;6.802;2022-12-07T09:37:30;4.90;99.90
2577;DHT22;1298;51.252;6.802;2022-12-07T09:40:19;4.90;99.90
2577;DHT22;1298;51.252;6.802;2022-12-07T09:43:10;4.90;99.90
2577;DHT22;1298;51.252;6.802;2022-12-07T09:45:57;5.00;99.90
2577;DHT22;1298;51.252;6.802;2022-12-07T09:48:42;5.10;99.90
2577;DHT22;1298;51.252;6.802;2022-12-07T09:51:29;5.10;99.90
2577;DHT22;1298;51.252;6.802;2022-12-07T09:54:16;5.10;99.90
2577;DHT22;1298;51.252;6.802;2022-12-07T09:57:01;5.10;99.90
2577;DHT22;1298;51.252;6.802;2022-12-07T09:59:48;5.20;99.90
2577;DHT22;1298;51.252;6.802;2022-12-07T10:02:36;5.20;99.90
2577;DHT22;1298;51.252;6.802;2022-12-07T10:05:22;5.30;99.90
2577;DHT22;1298;51.252;6.802;2022-12-07T10:08:09;5.40;99.90
2577;DHT22;1298;51.252;6.802;2022-12-07T10:10:56;5.40;99.90
2577;DHT22;1298;51.252;6.802;2022-12-07T10:13:42;5.30;99.90
2577;DHT22;1298;51.252;6.802;2022-12-07T10:16:38;5.30;99.90
2577;DHT22;1298;51.252;6.802;2022-12-07T10:19:25;5.30;99.90
2577;DHT22;1298;51.252;6.802;2022-12-07T10:22:11;5.30;99.90
2577;DHT22;1298;51.252;6.802;2022-12-07T10:24:57;5.40;99.90
2577;DHT22;1298;51.252;6.802;2022-12-07T10:28:03;5.60;99.90
2577;DHT22;1298;51.252;6.802;2022-12-07T10:30:56;5.60;99.90
2577;DHT22;1298;51.252;6.802;2022-12-07T10:33:49;5.60;99.90
2577;DHT22;1298;51.252;6.802;2022-12-07T10:36:36;5.70;99.90
2577;DHT22;1298;51.252;6.802;2022-12-07T10:39:22;5.60;99.90
2577;DHT22;1298;51.252;6.802;2022-12-07T10:42:15;5.60;99.90
2577;DHT22;1298;51.252;6.802;2022-12-07T10:45:08;5.60;99.90
2577;DHT22;1298;51.252;6.802;2022-12-07T10:47:55;5.60;99.90
2577;DHT22;1298;51.252;6.802;2022-12-07T10:50:52;5.60;99.90
2577;DHT22;1298;51.252;6.802;2022-12-07T10:53:44;5.60;99.90
2577;DHT22;1298;51.252;6.802;2022-12-07T10:56:48;5.60;99.90
2577;DHT22;1298;51.252;6.802;2022-12-07T11:05:45;5.50;99.90
2577;DHT22;1298;51.252;6.802;2022-12-07T11:08:39;5.50;99.90
2577;DHT22;1298;51.252;6.802;2022-12-07T11:11:27;5.60;99.90
2577;DHT22;1298;51.252;6.802;2022-12-07T11:14:16;5.60;99.90
2577;DHT22;1298;51.252;6.802;2022-12-07T11:17:07;5.60;99.90
2577;DHT22;1298;51.252;6.802;2022-12-07T11:19:58;5.70;99.90
2577;DHT22;1298;51.252;6.802;2022-12-07T11:22:47;5.80;99.90
2577;DHT22;1298;51.252;6.802;2022-12-07T11:25:38;5.90;99.90
2577;DHT22;1298;51.252;6.802;2022-12-07T11:28:33;5.90;99.90
2577;DHT22;1298;51.252;6.802;2022-12-07T11:31:21;6.00;99.90
2577;DHT22;1298;51.252;6.802;2022-12-07T11:34:13;6.00;99.90
2577;DHT22;1298;51.252;6.802;2022-12-07T11:37:01;6.20;99.90
2577;DHT22;1298;51.252;6.802;2022-12-07T11:39:49;6.00;99.90
2577;DHT22;1298;51.252;6.802;2022-12-07T11:42:39;6.10;99.90
2577;DHT22;1298;51.252;6.802;2022-12-07T11:45:27;6.20;99.90
2577;DHT22;1298;51.252;6.802;2022-12-07T11:48:14;6.30;99.90
2577;DHT22;1298;51.252;6.802;2022-12-07T11:51:02;6.40;99.90
2577;DHT22;1298;51.252;6.802;2022-12-07T11:53:48;6.30;99.90
2577;DHT22;1298;51.252;6.802;2022-12-07T11:56:36;6.40;99.90
2577;DHT22;1298;51.252;6.802;2022-12-07T11:59:32;6.40;99.90
2577;DHT22;1298;51.252;6.802;2022-12-07T12:02:22;6.60;99.90
2577;DHT22;1298;51.252;6.802;2022-12-07T12:05:16;6.70;99.90
2577;DHT22;1298;51.252;6.802;2022-12-07T12:08:03;6.60;99.90
2577;DHT22;1298;51.252;6.802;2022-12-07T12:10:53;6.70;99.90
2577;DHT22;1298;51.252;6.802;2022-12-07T12:13:48;6.70;99.90
2577;DHT22;1298;51.252;6.802;2022-12-07T12:16:47;6.70;99.90
2577;DHT22;1298;51.252;6.802;2022-12-07T12:19:34;6.70;99.90
2577;DHT22;1298;51.252;6.802;2022-12-07T12:22:21;6.80;99.90
2577;DHT22;1298;51.252;6.802;2022-12-07T12:25:14;6.80;99.90
2577;DHT22;1298;51.252;6.802;2022-12-07T12:28:04;6.80;99.90
2577;DHT22;1298;51.252;6.802;2022-12-07T12:31:06;6.70;99.90
2577;DHT22;1298;51.252;6.802;2022-12-07T12:33:54;6.60;99.90
2577;DHT22;1298;51.252;6.802;2022-12-07T12:36:44;6.60;99.90
2577;DHT22;1298;51.252;6.802;2022-12-07T12:39:33;6.60;99.90
2577;DHT22;1298;51.252;6.802;2022-12-07T12:42:18;6.70;99.90
2577;DHT22;1298;51.252;6.802;2022-12-07T12:45:17;6.70;99.90
2577;DHT22;1298;51.252;6.802;2022-12-07T12:48:36;6.70;99.90
2577;DHT22;1298;51.252;6.802;2022-12-07T12:51:39;6.60;99.90
2577;DHT22;1298;51.252;6.802;2022-12-07T12:54:26;6.60;99.90
2577;DHT22;1298;51.252;6.802;2022-12-07T12:57:13;6.50;99.90
2577;DHT22;1298;51.252;6.802;2022-12-07T13:00:02;6.50;99.90
2577;DHT22;1298;51.252;6.802;2022-12-07T13:02:49;6.50;99.90
2577;DHT22;1298;51.252;6.802;2022-12-07T13:05:35;6.60;99.90
2577;DHT22;1298;51.252;6.802;2022-12-07T13:08:22;6.60;99.90
2577;DHT22;1298;51.252;6.802;2022-12-07T13:11:16;6.70;99.90
2577;DHT22;1298;51.252;6.802;2022-12-07T13:17:07;6.60;99.90
2577;DHT22;1298;51.252;6.802;2022-12-07T13:19:53;6.60;99.90
2577;DHT22;1298;51.252;6.802;2022-12-07T13:22:40;6.60;99.90
2577;DHT22;1298;51.252;6.802;2022-12-07T13:25:31;6.60;99.90
2577;DHT22;1298;51.252;6.802;2022-12-07T13:28:18;6.60;99.90
2577;DHT22;1298;51.252;6.802;2022-12-07T13:31:11;6.60;99.90
2577;DHT22;1298;51.252;6.802;2022-12-07T13:33:58;6.50;99.90
2577;DHT22;1298;51.252;6.802;2022-12-07T13:36:43;6.50;99.90
2577;DHT22;1298;51.252;6.802;2022-12-07T13:39:29;6.50;99.90
2577;DHT22;1298;51.252;6.802;2022-12-07T13:42:19;6.50;99.90
2577;DHT22;1298;51.252;6.802;2022-12-07T13:45:17;6.50;99.90
2577;DHT22;1298;51.252;6.802;2022-12-07T13:48:05;6.60;99.90
2577;DHT22;1298;51.252;6.802;2022-12-07T13:50:54;6.60;99.90
2577;DHT22;1298;51.252;6.802;2022-12-07T13:53:45;6.70;99.90
2577;DHT22;1298;51.252;6.802;2022-12-07T13:56:31;6.60;99.90
2577;DHT22;1298;51.252;6.802;2022-12-07T13:59:19;6.80;99.90
2577;DHT22;1298;51.252;6.802;2022-12-07T14:02:16;7.30;99.90
2577;DHT22;1298;51.252;6.802;2022-12-07T14:05:07;7.20;99.90
2577;DHT22;1298;51.252;6.802;2022-12-07T14:07:54;6.90;99.90
2577;DHT22;1298;51.252;6.802;2022-12-07T14:10:40;6.90;99.90
2577;DHT22;1298;51.252;6.802;2022-12-07T14:13:28;6.80;99.90
2577;DHT22;1298;51.252;6.802;2022-12-07T14:16:21;6.90;99.90
2577;DHT22;1298;51.252;6.802;2022-12-07T14:19:37;6.70;99.90
2577;DHT22;1298;51.252;6.802;2022-12-07T14:22:25;6.70;99.90
2577;DHT22;1298;51.252;6.802;2022-12-07T14:25:18;6.70;99.90
2577;DHT22;1298;51.252;6.802;2022-12-07T14:28:04;6.80;99.90
2577;DHT22;1298;51.252;6.802;2022-12-07T14:30:49;6.70;99.90
2577;DHT22;1298;51.252;6.802;2022-12-07T14:33:38;6.60;99.90
2577;DHT22;1298;51.252;6.802;2022-12-07T14:36:23;6.70;99.90
2577;DHT22;1298;51.252;6.802;2022-12-07T14:39:08;6.70;99.90
2577;DHT22;1298;51.252;6.802;2022-12-07T14:41:54;6.60;99.90
2577;DHT22;1298;51.252;6.802;2022-12-07T14:44:39;6.60;99.90
2577;DHT22;1298;51.252;6.802;2022-12-07T14:47:25;6.70;99.90
2577;DHT22;1298;51.252;6.802;2022-12-07T14:50:14;6.70;99.90
2577;DHT22;1298;51.252;6.802;2022-12-07T14:53:01;6.70;99.90
2577;DHT22;1298;51.252;6.802;2022-12-07T14:55:48;6.70;99.90
2577;DHT22;1298;51.252;6.802;2022-12-07T14:58:33;6.70;99.90
2577;DHT22;1298;51.252;6.802;2022-12-07T15:01:19;6.60;99.90
2577;DHT22;1298;51.252;6.802;2022-12-07T15:04:04;6.50;99.90
2577;DHT22;1298;51.252;6.802;2022-12-07T15:06:57;6.40;99.90
2577;DHT22;1298;51.252;6.802;2022-12-07T15:09:43;6.30;99.90
2577;DHT22;1298;51.252;6.802;2022-12-07T15:12:31;6.30;99.90
2577;DHT22;1298;51.252;6.802;2022-12-07T15:15:16;6.30;99.90
2577;DHT22;1298;51.252;6.802;2022-12-07T15:18:01;6.30;99.90
2577;DHT22;1298;51.252;6.802;2022-12-07T15:20:47;6.30;99.90
2577;DHT22;1298;51.252;6.802;2022-12-07T15:23:34;6.30;99.90
2577;DHT22;1298;51.252;6.802;2022-12-07T15:26:19;6.30;99.90
2577;DHT22;1298;51.252;6.802;2022-12-07T15:29:04;6.30;99.90
2577;DHT22;1298;51.252;6.802;2022-12-07T15:31:50;6.30;99.90
2577;DHT22;1298;51.252;6.802;2022-12-07T15:34:35;6.30;99.90
2577;DHT22;1298;51.252;6.802;2022-12-07T15:37:20;6.30;99.90
2577;DHT22;1298;51.252;6.802;2022-12-07T15:40:07;6.20;99.90
2577;DHT22;1298;51.252;6.802;2022-12-07T15:42:53;6.20;99.90
2577;DHT22;1298;51.252;6.802;2022-12-07T15:45:38;6.20;99.90
2577;DHT22;1298;51.252;6.802;2022-12-07T15:48:22;6.30;99.90
2577;DHT22;1298;51.252;6.802;2022-12-07T15:51:08;6.20;99.90
2577;DHT22;1298;51.252;6.802;2022-12-07T15:53:53;6.20;99.90
2577;DHT22;1298;51.252;6.802;2022-12-07T15:56:40;6.20;99.90
2577;DHT22;1298;51.252;6.802;2022-12-07T15:59:26;6.10;99.90
2577;DHT22;1298;51.252;6.802;2022-12-07T16:02:12;6.00;99.90
2577;DHT22;1298;51.252;6.802;2022-12-07T16:04:57;6.00;99.90
2577;DHT22;1298;51.252;6.802;2022-12-07T16:07:42;6.00;99.90
2577;DHT22;1298;51.252;6.802;2022-12-07T16:10:30;6.00;99.90
2577;DHT22;1298;51.252;6.802;2022-12-07T16:13:16;6.00;99.90
2577;DHT22;1298;51.252;6.802;2022-12-07T16:16:03;6.00;99.90
2577;DHT22;1298;51.252;6.802;2022-12-07T16:18:48;5.90;99.90
2577;DHT22;1298;51.252;6.802;2022-12-07T16:21:34;5.90;99.90
2577;DHT22;1298;51.252;6.802;2022-12-07T16:24:19;5.90;99.90
2577;DHT22;1298;51.252;6.802;2022-12-07T16:27:04;5.90;99.90
2577;DHT22;1298;51.252;6.802;2022-12-07T16:29:50;5.80;99.90
2577;DHT22;1298;51.252;6.802;2022-12-07T16:32:35;5.80;99.90
2577;DHT22;1298;51.252;6.802;2022-12-07T16:35:21;5.70;99.90
2577;DHT22;1298;51.252;6.802;2022-12-07T16:38:06;5.70;99.90
2577;DHT22;1298;51.252;6.802;2022-12-07T16:40:51;5.70;99.90
2577;DHT22;1298;51.252;6.802;2022-12-07T16:43:36;5.70;99.90
2577;DHT22;1298;51.252;6.802;2022-12-07T16:46:22;5.60;99.90
2577;DHT22;1298;51.252;6.802;2022-12-07T16:49:09;5.60;99.90
2577;DHT22;1298;51.252;6.802;2022-12-07T16:51:55;5.60;99.90
2577;DHT22;1298;51.252;6.802;2022-12-07T16:54:41;5.60;99.90
2577;DHT22;1298;51.252;6.802;2022-12-07T16:57:27;5.60;99.90
2577;DHT22;1298;51.252;6.802;2022-12-07T17:00:12;5.60;99.90
2577;DHT22;1298;51.252;6.802;2022-12-07T17:02:59;5.60;99.90
2577;DHT22;1298;51.252;6.802;2022-12-07T17:05:45;5.60;99.90
2577;DHT22;1298;51.252;6.802;2022-12-07T17:08:31;5.60;99.90
2577;DHT22;1298;51.252;6.802;2022-12-07T17:11:16;5.60;99.90
2577;DHT22;1298;51.252;6.802;2022-12-07T17:14:02;5.50;99.90
2577;DHT22;1298;51.252;6.802;2022-12-07T17:17:05;5.60;99.90
2577;DHT22;1298;51.252;6.802;2022-12-07T17:19:51;5.50;99.90
2577;DHT22;1298;51.252;6.802;2022-12-07T17:22:36;5.50;99.90
2577;DHT22;1298;51.252;6.802;2022-12-07T17:25:22;5.50;99.90
2577;DHT22;1298;51.252;6.802;2022-12-07T17:28:07;5.50;99.90
2577;DHT22;1298;51.252;6.802;2022-12-07T17:30:52;5.60;99.90
2577;DHT22;1298;51.252;6.802;2022-12-07T17:33:37;5.60;99.90
2577;DHT22;1298;51.252;6.802;2022-12-07T17:36:24;5.60;99.90
2577;DHT22;1298;51.252;6.802;2022-12-07T17:39:11;5.60;99.90
2577;DHT22;1298;51.252;6.802;2022-12-07T17:41:56;5.50;99.90
2577;DHT22;1298;51.252;6.802;2022-12-07T17:45:00;5.50;99.90
2577;DHT22;1298;51.252;6.802;2022-12-07T17:47:45;5.50;99.90
2577;DHT22;1298;51.252;6.802;2022-12-07T17:50:30;5.40;99.90
2577;DHT22;1298;51.252;6.802;2022-12-07T17:53:35;5.40;99.90
2577;DHT22;1298;51.252;6.802;2022-12-07T17:56:20;5.40;99.90
2577;DHT22;1298;51.252;6.802;2022-12-07T17:59:05;5.40;99.90
2577;DHT22;1298;51.252;6.802;2022-12-07T18:01:50;5.40;99.90
2577;DHT22;1298;51.252;6.802;2022-12-07T18:04:35;5.40;99.90
2577;DHT22;1298;51.252;6.802;2022-12-07T18:07:21;5.30;99.90
2577;DHT22;1298;51.252;6.802;2022-12-07T18:10:08;5.30;99.90
2577;DHT22;1298;51.252;6.802;2022-12-07T18:12:55;5.30;99.90
2577;DHT22;1298;51.252;6.802;2022-12-07T18:16:00;5.30;99.90
2577;DHT22;1298;51.252;6.802;2022-12-07T18:18:45;5.20;99.90
2577;DHT22;1298;51.252;6.802;2022-12-07T18:21:31;5.20;99.90
2577;DHT22;1298;51.252;6.802;2022-12-07T18:24:17;5.20;99.90
2577;DHT22;1298;51.252;6.802;2022-12-07T18:27:04;5.20;99.90
2577;DHT22;1298;51.252;6.802;2022-12-07T18:29:49;5.20;99.90
2577;DHT22;1298;51.252;6.802;2022-12-07T18:32:35;5.20;99.90
2577;DHT22;1298;51.252;6.802;2022-12-07T18:35:20;5.30;99.90
2577;DHT22;1298;51.252;6.802;2022-12-07T18:38:05;5.30;99.90
2577;DHT22;1298;51.252;6.802;2022-12-07T18:40:51;5.30;99.90
2577;DHT22;1298;51.252;6.802;2022-12-07T18:43:37;5.20;99.90